sensor_id;sensor_type;location;lat;lon;timestamp;temperature;humidity
51637;DHT22;37713;53.254;6.460;2023-02-28T00:00:18;3.80;99.90
51637;DHT22;37713;53.254;6.460;2023-02-28T00:02:45;3.80;99.90
51637;DHT22;37713;53.254;6.460;2023-02-28T00:05:16;3.80;99.90
51637;DHT22;37713;53.254;6.460;2023-02-28T00:07:42;3.80;99.90
51637;DHT22;37713;53.254;6.460;2023-02-28T00:10:10;3.80;99.90
51637;DHT22;37713;53.254;6.460;2023-02-28T00:12:37;3.80;99.90
51637;DHT22;37713;53.254;6.460;2023-02-28T00:15:09;3.80;99.90
51637;DHT22;37713;53.254;6.460;2023-02-28T00:17:35;3.80;99.90
51637;DHT22;37713;53.254;6.460;2023-02-28T00:20:02;3.70;99.90
51637;DHT22;37713;53.254;6.460;2023-02-28T00:22:30;3.80;99.90
51637;DHT22;37713;53.254;6.460;2023-02-28T00:24:55;3.80;99.90
51637;DHT22;37713;53.254;6.460;2023-02-28T00:27:21;3.70;99.90
51637;DHT22;37713;53.254;6.460;2023-02-28T00:29:47;3.70;99.90
51637;DHT22;37713;53.254;6.460;2023-02-28T00:32:13;3.80;99.90
51637;DHT22;37713;53.254;6.460;2023-02-28T00:34:39;3.80;99.90
51637;DHT22;37713;53.254;6.460;2023-02-28T00:37:06;3.80;99.90
51637;DHT22;37713;53.254;6.460;2023-02-28T00:39:34;3.80;99.90
51637;DHT22;37713;53.254;6.460;2023-02-28T00:42:01;3.80;99.90
51637;DHT22;37713;53.254;6.460;2023-02-28T00:44:28;3.80;99.90
51637;DHT22;37713;53.254;6.460;2023-02-28T00:46:53;3.80;99.90
51637;DHT22;37713;53.254;6.460;2023-02-28T00:49:20;3.80;99.90
51637;DHT22;37713;53.254;6.460;2023-02-28T00:51:46;3.80;99.90
51637;DHT22;37713;53.254;6.460;2023-02-28T00:54:12;3.70;99.90
51637;DHT22;37713;53.254;6.460;2023-02-28T00:56:38;3.70;99.90
51637;DHT22;37713;53.254;6.460;2023-02-28T00:59:04;3.70;99.90
51637;DHT22;37713;53.254;6.460;2023-02-28T01:01:30;3.70;99.90
51637;DHT22;37713;53.254;6.460;2023-02-28T01:03:56;3.60;99.90
51637;DHT22;37713;53.254;6.460;2023-02-28T01:06:22;3.60;99.90
51637;DHT22;37713;53.254;6.460;2023-02-28T01:08:48;3.80;99.90
51637;DHT22;37713;53.254;6.460;2023-02-28T01:11:15;3.70;99.90
51637;DHT22;37713;53.254;6.460;2023-02-28T01:13:42;3.70;99.90
51637;DHT22;37713;53.254;6.460;2023-02-28T01:16:09;3.70;99.90
51637;DHT22;37713;53.254;6.460;2023-02-28T01:18:36;3.70;99.90
51637;DHT22;37713;53.254;6.460;2023-02-28T01:21:07;3.70;99.90
51637;DHT22;37713;53.254;6.460;2023-02-28T01:23:33;3.70;99.90
51637;DHT22;37713;53.254;6.460;2023-02-28T01:26:16;3.60;99.90
51637;DHT22;37713;53.254;6.460;2023-02-28T01:28:42;3.60;99.90
51637;DHT22;37713;53.254;6.460;2023-02-28T01:31:09;3.70;99.90
51637;DHT22;37713;53.254;6.460;2023-02-28T01:33:35;3.60;99.90
51637;DHT22;37713;53.254;6.460;2023-02-28T01:38:29;3.70;99.90
51637;DHT22;37713;53.254;6.460;2023-02-28T01:40:55;3.60;99.90
51637;DHT22;37713;53.254;6.460;2023-02-28T01:43:30;3.70;99.90
51637;DHT22;37713;53.254;6.460;2023-02-28T01:45:57;3.70;99.90
51637;DHT22;37713;53.254;6.460;2023-02-28T01:48:28;3.70;99.90
51637;DHT22;37713;53.254;6.460;2023-02-28T01:50:59;3.70;99.90
51637;DHT22;37713;53.254;6.460;2023-02-28T01:53:31;3.80;99.90
51637;DHT22;37713;53.254;6.460;2023-02-28T01:55:58;3.80;99.90
51637;DHT22;37713;53.254;6.460;2023-02-28T01:58:24;3.80;99.90
51637;DHT22;37713;53.254;6.460;2023-02-28T02:00:50;3.80;99.90
51637;DHT22;37713;53.254;6.460;2023-02-28T02:03:18;3.80;99.90
51637;DHT22;37713;53.254;6.460;2023-02-28T02:05:45;3.80;99.90
51637;DHT22;37713;53.254;6.460;2023-02-28T02:08:25;3.80;99.90
51637;DHT22;37713;53.254;6.460;2023-02-28T02:10:57;3.80;99.90
51637;DHT22;37713;53.254;6.460;2023-02-28T02:19:00;3.80;99.90
51637;DHT22;37713;53.254;6.460;2023-02-28T02:27:16;3.80;99.90
51637;DHT22;37713;53.254;6.460;2023-02-28T02:33:04;3.80;99.90
51637;DHT22;37713;53.254;6.460;2023-02-28T02:41:16;3.90;99.90
51637;DHT22;37713;53.254;6.460;2023-02-28T02:44:12;3.90;99.90
51637;DHT22;37713;53.254;6.460;2023-02-28T02:46:42;3.90;99.90
51637;DHT22;37713;53.254;6.460;2023-02-28T02:49:14;3.90;99.90
51637;DHT22;37713;53.254;6.460;2023-02-28T02:51:41;3.90;99.90
51637;DHT22;37713;53.254;6.460;2023-02-28T02:54:18;3.90;99.90
51637;DHT22;37713;53.254;6.460;2023-02-28T02:56:48;3.90;99.90
51637;DHT22;37713;53.254;6.460;2023-02-28T02:59:17;3.90;99.90
51637;DHT22;37713;53.254;6.460;2023-02-28T03:01:53;3.90;99.90
51637;DHT22;37713;53.254;6.460;2023-02-28T03:04:22;3.90;99.90
51637;DHT22;37713;53.254;6.460;2023-02-28T03:06:51;4.00;99.90
51637;DHT22;37713;53.254;6.460;2023-02-28T03:09:23;4.00;99.90
51637;DHT22;37713;53.254;6.460;2023-02-28T03:11:51;4.00;99.90
51637;DHT22;37713;53.254;6.460;2023-02-28T03:22:43;4.10;99.90
51637;DHT22;37713;53.254;6.460;2023-02-28T03:28:24;4.10;99.90
51637;DHT22;37713;53.254;6.460;2023-02-28T03:31:00;4.10;99.90
51637;DHT22;37713;53.254;6.460;2023-02-28T03:33:32;4.20;99.90
51637;DHT22;37713;53.254;6.460;2023-02-28T03:36:04;4.20;99.90
51637;DHT22;37713;53.254;6.460;2023-02-28T03:38:38;4.20;99.90
51637;DHT22;37713;53.254;6.460;2023-02-28T03:41:20;4.20;99.90
51637;DHT22;37713;53.254;6.460;2023-02-28T03:43:54;4.20;99.90
51637;DHT22;37713;53.254;6.460;2023-02-28T03:46:24;4.20;99.90
51637;DHT22;37713;53.254;6.460;2023-02-28T03:48:55;4.20;99.90
51637;DHT22;37713;53.254;6.460;2023-02-28T03:51:24;4.30;99.90
51637;DHT22;37713;53.254;6.460;2023-02-28T03:53:54;4.30;99.90
51637;DHT22;37713;53.254;6.460;2023-02-28T03:56:26;4.30;99.90
51637;DHT22;37713;53.254;6.460;2023-02-28T03:59:14;4.30;99.90
51637;DHT22;37713;53.254;6.460;2023-02-28T04:01:44;4.30;99.90
51637;DHT22;37713;53.254;6.460;2023-02-28T04:04:11;4.30;99.90
51637;DHT22;37713;53.254;6.460;2023-02-28T04:06:38;4.30;99.90
51637;DHT22;37713;53.254;6.460;2023-02-28T04:09:06;4.30;99.90
51637;DHT22;37713;53.254;6.460;2023-02-28T04:11:40;4.20;99.90
51637;DHT22;37713;53.254;6.460;2023-02-28T04:14:07;4.20;99.90
51637;DHT22;37713;53.254;6.460;2023-02-28T04:16:35;4.20;99.90
51637;DHT22;37713;53.254;6.460;2023-02-28T04:19:06;4.20;99.90
51637;DHT22;37713;53.254;6.460;2023-02-28T04:21:36;4.10;99.90
51637;DHT22;37713;53.254;6.460;2023-02-28T04:24:02;4.10;99.90
51637;DHT22;37713;53.254;6.460;2023-02-28T04:26:33;4.10;99.90
51637;DHT22;37713;53.254;6.460;2023-02-28T04:28:59;4.00;99.90
51637;DHT22;37713;53.254;6.460;2023-02-28T04:31:25;4.00;99.90
51637;DHT22;37713;53.254;6.460;2023-02-28T04:33:51;4.00;99.90
51637;DHT22;37713;53.254;6.460;2023-02-28T04:36:17;3.90;99.90
51637;DHT22;37713;53.254;6.460;2023-02-28T04:38:44;3.90;99.90
51637;DHT22;37713;53.254;6.460;2023-02-28T04:41:14;3.80;99.90
51637;DHT22;37713;53.254;6.460;2023-02-28T04:43:39;3.80;99.90
51637;DHT22;37713;53.254;6.460;2023-02-28T04:46:06;3.80;99.90
51637;DHT22;37713;53.254;6.460;2023-02-28T04:48:35;3.80;99.90
51637;DHT22;37713;53.254;6.460;2023-02-28T04:51:02;3.70;99.90
51637;DHT22;37713;53.254;6.460;2023-02-28T04:53:29;3.70;99.90
51637;DHT22;37713;53.254;6.460;2023-02-28T04:55:55;3.70;99.90
51637;DHT22;37713;53.254;6.460;2023-02-28T04:58:21;3.70;99.90
51637;DHT22;37713;53.254;6.460;2023-02-28T05:00:50;3.70;99.90
51637;DHT22;37713;53.254;6.460;2023-02-28T05:03:15;3.60;99.90
51637;DHT22;37713;53.254;6.460;2023-02-28T05:05:41;3.70;99.90
51637;DHT22;37713;53.254;6.460;2023-02-28T05:08:07;3.70;99.90
51637;DHT22;37713;53.254;6.460;2023-02-28T05:10:33;3.60;99.90
51637;DHT22;37713;53.254;6.460;2023-02-28T05:12:58;3.60;99.90
51637;DHT22;37713;53.254;6.460;2023-02-28T05:15:24;3.60;99.90
51637;DHT22;37713;53.254;6.460;2023-02-28T05:17:50;3.60;99.90
51637;DHT22;37713;53.254;6.460;2023-02-28T05:20:16;3.50;99.90
51637;DHT22;37713;53.254;6.460;2023-02-28T05:22:43;3.50;99.90
51637;DHT22;37713;53.254;6.460;2023-02-28T05:25:15;3.40;99.90
51637;DHT22;37713;53.254;6.460;2023-02-28T05:27:41;3.40;99.90
51637;DHT22;37713;53.254;6.460;2023-02-28T05:30:08;3.40;99.90
51637;DHT22;37713;53.254;6.460;2023-02-28T05:32:39;3.30;99.90
51637;DHT22;37713;53.254;6.460;2023-02-28T05:35:11;3.20;99.90
51637;DHT22;37713;53.254;6.460;2023-02-28T05:37:38;3.30;99.90
51637;DHT22;37713;53.254;6.460;2023-02-28T05:40:05;3.20;99.90
51637;DHT22;37713;53.254;6.460;2023-02-28T05:42:32;3.20;99.90
51637;DHT22;37713;53.254;6.460;2023-02-28T05:44:58;3.20;99.90
51637;DHT22;37713;53.254;6.460;2023-02-28T05:47:24;3.20;99.90
51637;DHT22;37713;53.254;6.460;2023-02-28T05:49:50;3.10;99.90
51637;DHT22;37713;53.254;6.460;2023-02-28T05:52:16;3.10;99.90
51637;DHT22;37713;53.254;6.460;2023-02-28T05:54:42;3.10;99.90
51637;DHT22;37713;53.254;6.460;2023-02-28T05:57:07;3.10;99.90
51637;DHT22;37713;53.254;6.460;2023-02-28T05:59:33;3.10;99.90
51637;DHT22;37713;53.254;6.460;2023-02-28T06:01:59;3.10;99.90
51637;DHT22;37713;53.254;6.460;2023-02-28T06:04:24;3.10;99.90
51637;DHT22;37713;53.254;6.460;2023-02-28T06:06:51;3.10;99.90
51637;DHT22;37713;53.254;6.460;2023-02-28T06:09:17;3.10;99.90
51637;DHT22;37713;53.254;6.460;2023-02-28T06:11:44;3.00;99.90
51637;DHT22;37713;53.254;6.460;2023-02-28T06:14:18;3.00;99.90
51637;DHT22;37713;53.254;6.460;2023-02-28T06:16:44;3.00;99.90
51637;DHT22;37713;53.254;6.460;2023-02-28T06:19:10;2.90;99.90
51637;DHT22;37713;53.254;6.460;2023-02-28T06:21:36;2.90;99.90
51637;DHT22;37713;53.254;6.460;2023-02-28T06:24:03;3.00;99.90
51637;DHT22;37713;53.254;6.460;2023-02-28T06:26:29;2.90;99.90
51637;DHT22;37713;53.254;6.460;2023-02-28T06:28:54;2.90;99.90
51637;DHT22;37713;53.254;6.460;2023-02-28T06:31:20;2.90;99.90
51637;DHT22;37713;53.254;6.460;2023-02-28T06:33:46;3.10;99.90
51637;DHT22;37713;53.254;6.460;2023-02-28T06:36:14;2.90;99.90
51637;DHT22;37713;53.254;6.460;2023-02-28T06:38:40;3.00;99.90
51637;DHT22;37713;53.254;6.460;2023-02-28T06:41:07;3.00;99.90
51637;DHT22;37713;53.254;6.460;2023-02-28T06:43:35;3.00;99.90
51637;DHT22;37713;53.254;6.460;2023-02-28T06:46:03;3.00;99.90
51637;DHT22;37713;53.254;6.460;2023-02-28T06:48:30;3.00;99.90
51637;DHT22;37713;53.254;6.460;2023-02-28T06:51:09;3.00;99.90
51637;DHT22;37713;53.254;6.460;2023-02-28T06:53:35;3.00;99.90
51637;DHT22;37713;53.254;6.460;2023-02-28T06:56:12;3.00;99.90
51637;DHT22;37713;53.254;6.460;2023-02-28T06:58:39;3.00;99.90
51637;DHT22;37713;53.254;6.460;2023-02-28T07:01:05;3.00;99.90
51637;DHT22;37713;53.254;6.460;2023-02-28T07:03:31;3.00;99.90
51637;DHT22;37713;53.254;6.460;2023-02-28T07:05:57;3.00;99.90
51637;DHT22;37713;53.254;6.460;2023-02-28T07:08:24;3.00;99.90
51637;DHT22;37713;53.254;6.460;2023-02-28T07:10:54;2.90;99.90
51637;DHT22;37713;53.254;6.460;2023-02-28T07:13:23;2.90;99.90
51637;DHT22;37713;53.254;6.460;2023-02-28T07:15:54;2.90;99.90
51637;DHT22;37713;53.254;6.460;2023-02-28T07:18:20;2.90;99.90
51637;DHT22;37713;53.254;6.460;2023-02-28T07:20:45;2.90;99.90
51637;DHT22;37713;53.254;6.460;2023-02-28T07:23:11;2.80;99.90
51637;DHT22;37713;53.254;6.460;2023-02-28T07:25:37;2.80;99.90
51637;DHT22;37713;53.254;6.460;2023-02-28T07:28:03;2.80;99.90
51637;DHT22;37713;53.254;6.460;2023-02-28T07:30:28;2.80;99.90
51637;DHT22;37713;53.254;6.460;2023-02-28T07:32:54;2.80;99.90
51637;DHT22;37713;53.254;6.460;2023-02-28T07:35:22;2.80;99.90
51637;DHT22;37713;53.254;6.460;2023-02-28T07:37:48;2.80;99.90
51637;DHT22;37713;53.254;6.460;2023-02-28T07:40:14;2.80;99.90
51637;DHT22;37713;53.254;6.460;2023-02-28T07:42:41;2.80;99.90
51637;DHT22;37713;53.254;6.460;2023-02-28T07:45:08;2.80;99.90
51637;DHT22;37713;53.254;6.460;2023-02-28T07:47:38;2.80;99.90
51637;DHT22;37713;53.254;6.460;2023-02-28T07:50:05;2.80;99.90
51637;DHT22;37713;53.254;6.460;2023-02-28T07:52:31;2.80;99.90
51637;DHT22;37713;53.254;6.460;2023-02-28T07:54:57;2.80;99.90
51637;DHT22;37713;53.254;6.460;2023-02-28T07:57:23;2.90;99.90
51637;DHT22;37713;53.254;6.460;2023-02-28T07:59:49;2.90;99.90
51637;DHT22;37713;53.254;6.460;2023-02-28T08:02:16;2.90;99.90
51637;DHT22;37713;53.254;6.460;2023-02-28T08:04:42;3.00;99.90
51637;DHT22;37713;53.254;6.460;2023-02-28T08:07:08;3.00;99.90
51637;DHT22;37713;53.254;6.460;2023-02-28T08:09:41;3.10;99.90
51637;DHT22;37713;53.254;6.460;2023-02-28T08:12:08;3.20;99.90
51637;DHT22;37713;53.254;6.460;2023-02-28T08:14:35;3.20;99.90
51637;DHT22;37713;53.254;6.460;2023-02-28T08:17:01;3.30;99.90
51637;DHT22;37713;53.254;6.460;2023-02-28T08:19:27;3.30;99.90
51637;DHT22;37713;53.254;6.460;2023-02-28T08:21:54;3.40;99.90
51637;DHT22;37713;53.254;6.460;2023-02-28T08:24:20;3.40;99.90
51637;DHT22;37713;53.254;6.460;2023-02-28T08:26:45;3.40;99.90
51637;DHT22;37713;53.254;6.460;2023-02-28T08:29:11;3.40;99.90
51637;DHT22;37713;53.254;6.460;2023-02-28T08:31:37;3.50;99.90
51637;DHT22;37713;53.254;6.460;2023-02-28T08:34:08;3.60;99.90
51637;DHT22;37713;53.254;6.460;2023-02-28T08:36:34;3.90;99.90
51637;DHT22;37713;53.254;6.460;2023-02-28T08:39:01;3.80;99.90
51637;DHT22;37713;53.254;6.460;2023-02-28T08:41:26;3.80;99.90
51637;DHT22;37713;53.254;6.460;2023-02-28T08:43:52;3.90;99.90
51637;DHT22;37713;53.254;6.460;2023-02-28T08:46:19;3.90;99.90
51637;DHT22;37713;53.254;6.460;2023-02-28T08:48:45;4.00;99.90
51637;DHT22;37713;53.254;6.460;2023-02-28T08:51:14;4.00;99.90
51637;DHT22;37713;53.254;6.460;2023-02-28T08:53:41;4.10;99.90
51637;DHT22;37713;53.254;6.460;2023-02-28T08:56:15;4.20;99.90
51637;DHT22;37713;53.254;6.460;2023-02-28T08:58:43;4.30;99.90
51637;DHT22;37713;53.254;6.460;2023-02-28T09:01:20;4.40;99.90
51637;DHT22;37713;53.254;6.460;2023-02-28T09:03:48;4.50;99.90
51637;DHT22;37713;53.254;6.460;2023-02-28T09:06:15;4.60;99.90
51637;DHT22;37713;53.254;6.460;2023-02-28T09:08:42;4.60;99.90
51637;DHT22;37713;53.254;6.460;2023-02-28T09:11:09;4.70;99.90
51637;DHT22;37713;53.254;6.460;2023-02-28T09:13:35;4.70;99.90
51637;DHT22;37713;53.254;6.460;2023-02-28T09:16:03;4.70;99.90
51637;DHT22;37713;53.254;6.460;2023-02-28T09:18:30;4.70;99.90
51637;DHT22;37713;53.254;6.460;2023-02-28T09:20:56;4.70;99.90
51637;DHT22;37713;53.254;6.460;2023-02-28T09:23:24;4.70;99.90
51637;DHT22;37713;53.254;6.460;2023-02-28T09:25:52;4.80;99.90
51637;DHT22;37713;53.254;6.460;2023-02-28T09:28:19;4.90;99.90
51637;DHT22;37713;53.254;6.460;2023-02-28T09:30:50;5.00;99.90
51637;DHT22;37713;53.254;6.460;2023-02-28T09:33:17;5.00;99.90
51637;DHT22;37713;53.254;6.460;2023-02-28T09:35:49;5.10;99.90
51637;DHT22;37713;53.254;6.460;2023-02-28T09:38:16;5.20;99.90
51637;DHT22;37713;53.254;6.460;2023-02-28T09:41:00;5.30;99.90
51637;DHT22;37713;53.254;6.460;2023-02-28T09:43:33;5.30;99.90
51637;DHT22;37713;53.254;6.460;2023-02-28T09:46:29;5.30;99.90
51637;DHT22;37713;53.254;6.460;2023-02-28T09:48:57;5.20;99.90
51637;DHT22;37713;53.254;6.460;2023-02-28T09:51:44;5.40;99.90
51637;DHT22;37713;53.254;6.460;2023-02-28T09:54:17;5.40;99.90
51637;DHT22;37713;53.254;6.460;2023-02-28T09:56:50;5.50;99.90
51637;DHT22;37713;53.254;6.460;2023-02-28T09:59:29;5.50;99.90
51637;DHT22;37713;53.254;6.460;2023-02-28T10:04:50;5.40;99.90
51637;DHT22;37713;53.254;6.460;2023-02-28T10:09:57;5.50;99.90
51637;DHT22;37713;53.254;6.460;2023-02-28T10:12:24;5.70;99.90
51637;DHT22;37713;53.254;6.460;2023-02-28T10:14:52;5.80;99.90
51637;DHT22;37713;53.254;6.460;2023-02-28T10:17:24;5.90;99.90
51637;DHT22;37713;53.254;6.460;2023-02-28T10:22:46;5.80;99.90
51637;DHT22;37713;53.254;6.460;2023-02-28T10:25:20;5.70;99.90
51637;DHT22;37713;53.254;6.460;2023-02-28T10:27:46;5.60;99.90
51637;DHT22;37713;53.254;6.460;2023-02-28T10:30:13;5.60;99.90
51637;DHT22;37713;53.254;6.460;2023-02-28T10:32:40;5.50;99.90
51637;DHT22;37713;53.254;6.460;2023-02-28T10:35:14;5.50;99.90
51637;DHT22;37713;53.254;6.460;2023-02-28T10:37:42;5.60;99.90
51637;DHT22;37713;53.254;6.460;2023-02-28T10:45:20;5.50;99.90
51637;DHT22;37713;53.254;6.460;2023-02-28T10:48:01;5.50;99.90
51637;DHT22;37713;53.254;6.460;2023-02-28T10:50:35;5.50;99.90
51637;DHT22;37713;53.254;6.460;2023-02-28T11:03:56;5.30;99.90
51637;DHT22;37713;53.254;6.460;2023-02-28T11:06:29;5.30;99.90
51637;DHT22;37713;53.254;6.460;2023-02-28T11:08:58;5.30;99.90
51637;DHT22;37713;53.254;6.460;2023-02-28T11:11:27;5.30;99.90
51637;DHT22;37713;53.254;6.460;2023-02-28T11:13:56;5.30;99.90
51637;DHT22;37713;53.254;6.460;2023-02-28T11:16:35;5.40;99.90
51637;DHT22;37713;53.254;6.460;2023-02-28T11:19:04;5.40;99.90
51637;DHT22;37713;53.254;6.460;2023-02-28T11:21:36;5.30;99.90
51637;DHT22;37713;53.254;6.460;2023-02-28T11:24:27;5.30;99.90
51637;DHT22;37713;53.254;6.460;2023-02-28T11:26:51;5.40;99.90
51637;DHT22;37713;53.254;6.460;2023-02-28T11:29:31;5.40;99.90
51637;DHT22;37713;53.254;6.460;2023-02-28T11:32:03;5.40;99.90
51637;DHT22;37713;53.254;6.460;2023-02-28T11:34:30;5.40;99.90
51637;DHT22;37713;53.254;6.460;2023-02-28T11:36:58;5.50;99.90
51637;DHT22;37713;53.254;6.460;2023-02-28T11:39:26;5.60;99.90
51637;DHT22;37713;53.254;6.460;2023-02-28T12:01:06;6.00;99.90
51637;DHT22;37713;53.254;6.460;2023-02-28T12:11:48;6.00;99.90
51637;DHT22;37713;53.254;6.460;2023-02-28T12:14:21;6.10;99.90
51637;DHT22;37713;53.254;6.460;2023-02-28T12:17:09;6.20;99.90
51637;DHT22;37713;53.254;6.460;2023-02-28T12:22:32;6.60;99.90
51637;DHT22;37713;53.254;6.460;2023-02-28T12:27:51;6.90;99.90
51637;DHT22;37713;53.254;6.460;2023-02-28T12:30:28;6.90;99.90
51637;DHT22;37713;53.254;6.460;2023-02-28T12:33:05;6.90;99.90
51637;DHT22;37713;53.254;6.460;2023-02-28T12:35:40;6.80;99.90
51637;DHT22;37713;53.254;6.460;2023-02-28T12:38:22;6.90;99.90
51637;DHT22;37713;53.254;6.460;2023-02-28T12:41:00;7.00;99.90
51637;DHT22;37713;53.254;6.460;2023-02-28T12:43:36;6.90;99.90
51637;DHT22;37713;53.254;6.460;2023-02-28T12:51:06;6.80;99.90
51637;DHT22;37713;53.254;6.460;2023-02-28T13:07:34;7.10;99.90
51637;DHT22;37713;53.254;6.460;2023-02-28T13:10:05;7.30;99.90
51637;DHT22;37713;53.254;6.460;2023-02-28T13:12:34;7.40;99.90
51637;DHT22;37713;53.254;6.460;2023-02-28T13:15:08;7.60;99.90
51637;DHT22;37713;53.254;6.460;2023-02-28T13:17:39;7.70;99.90
51637;DHT22;37713;53.254;6.460;2023-02-28T13:20:20;7.70;99.90
51637;DHT22;37713;53.254;6.460;2023-02-28T13:22:51;7.50;99.90
51637;DHT22;37713;53.254;6.460;2023-02-28T13:28:00;7.40;99.90
51637;DHT22;37713;53.254;6.460;2023-02-28T13:36:10;7.20;99.90
51637;DHT22;37713;53.254;6.460;2023-02-28T13:38:48;7.30;99.90
51637;DHT22;37713;53.254;6.460;2023-02-28T13:44:10;7.40;99.90
51637;DHT22;37713;53.254;6.460;2023-02-28T13:49:33;7.20;99.90
51637;DHT22;37713;53.254;6.460;2023-02-28T14:05:14;7.20;99.90
51637;DHT22;37713;53.254;6.460;2023-02-28T14:07:48;7.30;99.90
51637;DHT22;37713;53.254;6.460;2023-02-28T14:10:30;7.20;99.90
51637;DHT22;37713;53.254;6.460;2023-02-28T14:18:21;7.20;99.90
51637;DHT22;37713;53.254;6.460;2023-02-28T14:20:49;7.20;99.90
51637;DHT22;37713;53.254;6.460;2023-02-28T14:31:34;7.20;99.90
51637;DHT22;37713;53.254;6.460;2023-02-28T14:37:03;7.20;99.90
51637;DHT22;37713;53.254;6.460;2023-02-28T14:39:30;7.20;99.90
51637;DHT22;37713;53.254;6.460;2023-02-28T14:41:57;7.10;99.90
51637;DHT22;37713;53.254;6.460;2023-02-28T14:44:28;7.10;99.90
51637;DHT22;37713;53.254;6.460;2023-02-28T14:47:00;7.00;99.90
51637;DHT22;37713;53.254;6.460;2023-02-28T14:49:37;7.00;99.90
51637;DHT22;37713;53.254;6.460;2023-02-28T14:52:20;6.90;99.90
51637;DHT22;37713;53.254;6.460;2023-02-28T14:55:01;6.90;99.90
51637;DHT22;37713;53.254;6.460;2023-02-28T14:57:32;6.80;99.90
51637;DHT22;37713;53.254;6.460;2023-02-28T15:00:30;6.80;99.90
51637;DHT22;37713;53.254;6.460;2023-02-28T15:02:58;6.80;99.90
51637;DHT22;37713;53.254;6.460;2023-02-28T15:05:32;6.90;99.90
51637;DHT22;37713;53.254;6.460;2023-02-28T15:08:17;6.80;99.90
51637;DHT22;37713;53.254;6.460;2023-02-28T15:13:17;6.80;99.90
51637;DHT22;37713;53.254;6.460;2023-02-28T15:15:59;6.80;99.90
51637;DHT22;37713;53.254;6.460;2023-02-28T15:21:18;6.80;99.90
51637;DHT22;37713;53.254;6.460;2023-02-28T15:23:50;6.80;99.90
51637;DHT22;37713;53.254;6.460;2023-02-28T15:26:20;6.80;99.90
51637;DHT22;37713;53.254;6.460;2023-02-28T15:28:52;6.80;99.90
51637;DHT22;37713;53.254;6.460;2023-02-28T15:31:23;6.80;99.90
51637;DHT22;37713;53.254;6.460;2023-02-28T15:34:02;6.80;99.90
51637;DHT22;37713;53.254;6.460;2023-02-28T15:36:33;6.80;99.90
51637;DHT22;37713;53.254;6.460;2023-02-28T15:39:16;6.70;99.90
51637;DHT22;37713;53.254;6.460;2023-02-28T15:41:43;6.60;99.90
51637;DHT22;37713;53.254;6.460;2023-02-28T15:44:29;6.60;99.90
51637;DHT22;37713;53.254;6.460;2023-02-28T15:49:28;6.50;99.90
51637;DHT22;37713;53.254;6.460;2023-02-28T15:51:57;6.50;99.90
51637;DHT22;37713;53.254;6.460;2023-02-28T15:54:30;6.30;99.90
51637;DHT22;37713;53.254;6.460;2023-02-28T15:57:06;6.10;99.90
51637;DHT22;37713;53.254;6.460;2023-02-28T15:59:36;6.10;99.90
51637;DHT22;37713;53.254;6.460;2023-02-28T16:02:21;6.00;99.90
51637;DHT22;37713;53.254;6.460;2023-02-28T16:07:24;5.90;99.90
51637;DHT22;37713;53.254;6.460;2023-02-28T16:09:51;5.90;99.90
51637;DHT22;37713;53.254;6.460;2023-02-28T16:12:17;5.90;99.90
51637;DHT22;37713;53.254;6.460;2023-02-28T16:14:43;5.90;99.90
51637;DHT22;37713;53.254;6.460;2023-02-28T16:17:25;5.90;99.90
51637;DHT22;37713;53.254;6.460;2023-02-28T16:19:52;5.90;99.90
51637;DHT22;37713;53.254;6.460;2023-02-28T16:22:17;5.90;99.90
51637;DHT22;37713;53.254;6.460;2023-02-28T16:24:43;5.80;99.90
51637;DHT22;37713;53.254;6.460;2023-02-28T16:27:35;5.90;99.90
51637;DHT22;37713;53.254;6.460;2023-02-28T16:30:01;5.90;99.90
51637;DHT22;37713;53.254;6.460;2023-02-28T16:32:27;5.80;99.90
51637;DHT22;37713;53.254;6.460;2023-02-28T16:34:53;5.80;99.90
51637;DHT22;37713;53.254;6.460;2023-02-28T16:37:19;5.70;99.90
51637;DHT22;37713;53.254;6.460;2023-02-28T16:39:45;5.70;99.90
51637;DHT22;37713;53.254;6.460;2023-02-28T16:42:31;5.60;99.90
51637;DHT22;37713;53.254;6.460;2023-02-28T16:44:57;5.60;99.90
51637;DHT22;37713;53.254;6.460;2023-02-28T16:47:24;5.40;99.90
51637;DHT22;37713;53.254;6.460;2023-02-28T16:49:52;5.40;99.90
51637;DHT22;37713;53.254;6.460;2023-02-28T16:52:18;5.30;99.90
51637;DHT22;37713;53.254;6.460;2023-02-28T16:54:44;5.20;99.90
51637;DHT22;37713;53.254;6.460;2023-02-28T16:57:19;5.10;99.90
51637;DHT22;37713;53.254;6.460;2023-02-28T16:59:46;4.90;99.90
51637;DHT22;37713;53.254;6.460;2023-02-28T17:02:17;4.80;99.90
51637;DHT22;37713;53.254;6.460;2023-02-28T17:04:45;4.70;99.90
51637;DHT22;37713;53.254;6.460;2023-02-28T17:07:13;4.60;99.90
51637;DHT22;37713;53.254;6.460;2023-02-28T17:09:39;4.50;99.90
51637;DHT22;37713;53.254;6.460;2023-02-28T17:12:06;4.40;99.90
51637;DHT22;37713;53.254;6.460;2023-02-28T17:14:32;4.30;99.90
51637;DHT22;37713;53.254;6.460;2023-02-28T17:16:58;4.20;99.90
51637;DHT22;37713;53.254;6.460;2023-02-28T17:19:23;4.10;99.90
51637;DHT22;37713;53.254;6.460;2023-02-28T17:21:49;4.00;99.90
51637;DHT22;37713;53.254;6.460;2023-02-28T17:24:15;3.90;99.90
51637;DHT22;37713;53.254;6.460;2023-02-28T17:26:42;3.80;99.90
51637;DHT22;37713;53.254;6.460;2023-02-28T17:29:20;3.80;99.90
51637;DHT22;37713;53.254;6.460;2023-02-28T17:31:46;3.60;99.90
51637;DHT22;37713;53.254;6.460;2023-02-28T17:34:12;3.50;99.90
51637;DHT22;37713;53.254;6.460;2023-02-28T17:36:44;3.50;99.90
51637;DHT22;37713;53.254;6.460;2023-02-28T17:39:12;3.40;99.90
51637;DHT22;37713;53.254;6.460;2023-02-28T17:41:45;3.40;99.90
51637;DHT22;37713;53.254;6.460;2023-02-28T17:44:11;3.40;99.90
51637;DHT22;37713;53.254;6.460;2023-02-28T17:46:37;3.40;99.90
51637;DHT22;37713;53.254;6.460;2023-02-28T17:49:03;3.40;99.90
51637;DHT22;37713;53.254;6.460;2023-02-28T17:51:29;3.40;99.90
51637;DHT22;37713;53.254;6.460;2023-02-28T17:53:55;3.30;99.90
51637;DHT22;37713;53.254;6.460;2023-02-28T17:56:23;3.20;99.90
51637;DHT22;37713;53.254;6.460;2023-02-28T17:58:51;3.20;99.90
51637;DHT22;37713;53.254;6.460;2023-02-28T18:01:17;3.10;99.90
51637;DHT22;37713;53.254;6.460;2023-02-28T18:03:43;3.00;99.90
51637;DHT22;37713;53.254;6.460;2023-02-28T18:06:39;3.00;99.90
51637;DHT22;37713;53.254;6.460;2023-02-28T18:09:13;2.90;99.90
51637;DHT22;37713;53.254;6.460;2023-02-28T18:11:39;2.80;99.90
51637;DHT22;37713;53.254;6.460;2023-02-28T18:14:10;2.70;99.90
51637;DHT22;37713;53.254;6.460;2023-02-28T18:16:37;2.60;99.90
51637;DHT22;37713;53.254;6.460;2023-02-28T18:19:03;2.50;99.90
51637;DHT22;37713;53.254;6.460;2023-02-28T18:21:29;2.50;99.90
51637;DHT22;37713;53.254;6.460;2023-02-28T18:23:56;2.40;99.90
51637;DHT22;37713;53.254;6.460;2023-02-28T18:26:22;2.40;99.90
51637;DHT22;37713;53.254;6.460;2023-02-28T18:28:48;2.30;99.90
51637;DHT22;37713;53.254;6.460;2023-02-28T18:31:16;2.30;99.90
51637;DHT22;37713;53.254;6.460;2023-02-28T18:33:43;2.20;99.90
51637;DHT22;37713;53.254;6.460;2023-02-28T18:36:09;2.20;99.90
51637;DHT22;37713;53.254;6.460;2023-02-28T18:38:36;2.10;99.90
51637;DHT22;37713;53.254;6.460;2023-02-28T18:41:03;2.10;99.90
51637;DHT22;37713;53.254;6.460;2023-02-28T18:43:31;2.10;99.90